createdAt,value
2023-05-10T00:00:16.339Z,98779.22
2023-05-10T00:02:47.652Z,98775.53
2023-05-10T00:05:17.477Z,98772.19
2023-05-10T00:07:47.329Z,98766.91
2023-05-10T00:10:17.237Z,98761.41
2023-05-10T00:12:49.644Z,98764.50
2023-05-10T00:15:20.533Z,98762.00
2023-05-10T00:17:50.223Z,98754.69
2023-05-10T00:20:20.077Z,98752.78
2023-05-10T00:22:49.791Z,98752.19
2023-05-10T00:25:19.577Z,98758.25
2023-05-10T00:27:52.018Z,98742.34
2023-05-10T00:30:21.839Z,98748.09
2023-05-10T00:32:52.903Z,98742.63
2023-05-10T00:35:22.895Z,98743.47
2023-05-10T00:37:52.855Z,98743.47
2023-05-10T00:40:24.580Z,98757.66
2023-05-10T00:43:02.603Z,98750.53
2023-05-10T00:45:32.809Z,98743.16
2023-05-10T00:48:03.494Z,98739.63
2023-05-10T00:50:34.024Z,98744.56
2023-05-10T00:53:04.826Z,98738.56
2023-05-10T00:55:35.037Z,98736.63
2023-05-10T00:58:07.493Z,98737.41
2023-05-10T01:00:38.579Z,98742.84
2023-05-10T01:03:08.611Z,98736.88
2023-05-10T01:05:38.371Z,98738.28
2023-05-10T01:08:09.866Z,98734.22
2023-05-10T01:10:39.996Z,98731.44
2023-05-10T01:13:13.355Z,98740.72
2023-05-10T01:15:43.725Z,98730.38
2023-05-10T01:18:13.523Z,98733.09
2023-05-10T01:20:51.755Z,98729.56
2023-05-10T01:23:41.492Z,98732.81
2023-05-10T01:26:49.465Z,98736.66
2023-05-10T01:29:41.766Z,98728.75
2023-05-10T01:32:24.893Z,98732.81
2023-05-10T01:35:02.724Z,98733.09
2023-05-10T01:37:40.834Z,98734.22
2023-05-10T01:40:19.823Z,98729.28
2023-05-10T01:42:53.887Z,98727.41
2023-05-10T01:45:31.282Z,98734.50
2023-05-10T01:48:09.641Z,98733.66
2023-05-10T01:50:45.622Z,98726.28
2023-05-10T01:53:16.808Z,98727.34
2023-05-10T01:55:52.310Z,98721.06
2023-05-10T01:58:25.225Z,98726.28
2023-05-10T02:00:56.877Z,98735.84
2023-05-10T02:03:30.911Z,98729.03
2023-05-10T02:06:01.883Z,98729.00
2023-05-10T02:08:32.789Z,98730.13
2023-05-10T02:11:03.503Z,98729.31
2023-05-10T02:13:36.179Z,98733.94
2023-05-10T02:16:09.057Z,98728.19
2023-05-10T02:18:43.945Z,98739.13
2023-05-10T02:21:14.970Z,98738.03
2023-05-10T02:23:46.075Z,98739.63
2023-05-10T02:26:17.676Z,98737.47
2023-05-10T02:28:48.499Z,98735.31
2023-05-10T02:31:19.293Z,98727.13
2023-05-10T02:33:52.799Z,98723.28
2023-05-10T02:36:24.837Z,98741.88
2023-05-10T02:38:56.643Z,98732.03
2023-05-10T02:41:27.985Z,98727.66
2023-05-10T02:44:01.058Z,98736.94
2023-05-10T02:46:31.083Z,98733.13
2023-05-10T02:49:04.157Z,98735.31
2023-05-10T02:51:36.188Z,98734.47
2023-05-10T02:54:13.275Z,98732.28
2023-05-10T02:56:50.892Z,98728.72
2023-05-10T02:59:20.847Z,98727.13
2023-05-10T03:01:50.669Z,98739.66
2023-05-10T03:04:22.960Z,98732.03
2023-05-10T03:06:53.009Z,98730.66
2023-05-10T03:09:23.104Z,98741.88
2023-05-10T03:12:00.492Z,98734.19
2023-05-10T03:14:44.030Z,98734.19
2023-05-10T03:17:19.315Z,98738.00
2023-05-10T03:19:57.312Z,98740.22
2023-05-10T03:22:33.045Z,98747.03
2023-05-10T03:25:06.779Z,98735.59
2023-05-10T03:27:40.212Z,98736.94
2023-05-10T03:30:12.929Z,98738.00
2023-05-10T03:32:43.101Z,98725.22
2023-05-10T03:35:16.946Z,98729.84
2023-05-10T03:37:48.081Z,98725.44
2023-05-10T03:40:18.357Z,98730.38
2023-05-10T03:42:48.208Z,98729.28
2023-05-10T03:45:17.953Z,98732.03
2023-05-10T03:47:47.900Z,98725.75
2023-05-10T03:50:20.483Z,98729.78
2023-05-10T03:52:52.431Z,98735.28
2023-05-10T03:55:24.016Z,98728.16
2023-05-10T03:57:55.134Z,98727.88
2023-05-10T04:00:26.247Z,98724.84
2023-05-10T04:02:58.188Z,98724.81
2023-05-10T04:05:30.543Z,98720.63
2023-05-10T04:08:00.590Z,98723.56
2023-05-10T04:10:30.288Z,98722.50
2023-05-10T04:13:00.792Z,98718.34
2023-05-10T04:15:30.637Z,98710.94
2023-05-10T04:18:00.779Z,98704.16
2023-05-10T04:20:33.043Z,98714.88
2023-05-10T04:23:02.877Z,98713.94
2023-05-10T04:25:32.571Z,98717.94
2023-05-10T04:28:02.216Z,98718.00
2023-05-10T04:30:32.024Z,98724.00
2023-05-10T04:33:02.987Z,98726.78
2023-05-10T04:35:35.330Z,98735.84
2023-05-10T04:38:04.986Z,98736.09
2023-05-10T04:40:35.411Z,98737.16
2023-05-10T04:43:05.176Z,98733.03
2023-05-10T04:45:34.838Z,98747.25
2023-05-10T04:48:04.610Z,98742.94
2023-05-10T04:50:37.732Z,98739.31
2023-05-10T04:53:07.708Z,98740.13
2023-05-10T04:55:37.405Z,98738.88
2023-05-10T04:58:07.178Z,98727.28
2023-05-10T05:00:37.071Z,98731.03
2023-05-10T05:03:07.340Z,98729.72
2023-05-10T05:05:39.582Z,98736.00
2023-05-10T05:08:09.468Z,98731.31
2023-05-10T05:10:39.119Z,98748.88
2023-05-10T05:13:08.956Z,98740.06
2023-05-10T05:15:38.654Z,98752.41
2023-05-10T05:18:08.464Z,98742.72
2023-05-10T05:20:41.129Z,98739.34
2023-05-10T05:23:10.825Z,98744.41
2023-05-10T05:25:40.575Z,98743.75
2023-05-10T05:28:10.249Z,98741.31
2023-05-10T05:30:40.091Z,98736.16
2023-05-10T05:33:10.129Z,98743.63
2023-05-10T05:35:42.464Z,98745.06
2023-05-10T05:38:12.418Z,98763.59
2023-05-10T05:40:42.062Z,98765.22
2023-05-10T05:43:11.733Z,98761.06
2023-05-10T05:45:41.497Z,98755.13
2023-05-10T05:48:11.309Z,98764.16
2023-05-10T05:50:43.657Z,98763.25
2023-05-10T05:53:13.398Z,98763.13
2023-05-10T05:55:43.061Z,98756.19
2023-05-10T05:58:13.126Z,98755.34
2023-05-10T06:00:42.969Z,98755.41
2023-05-10T06:03:12.813Z,98755.78
2023-05-10T06:05:45.142Z,98755.59
2023-05-10T06:08:15.204Z,98759.81
2023-05-10T06:10:45.576Z,98758.16
2023-05-10T06:13:15.550Z,98759.59
2023-05-10T06:15:45.325Z,98753.00
2023-05-10T06:18:15.291Z,98750.06
2023-05-10T06:20:47.832Z,98745.50
2023-05-10T06:23:17.510Z,98751.81
2023-05-10T06:25:47.201Z,98752.22
2023-05-10T06:28:16.877Z,98748.28
2023-05-10T06:30:46.632Z,98768.75
2023-05-10T06:33:17.172Z,98764.91
2023-05-10T06:35:49.436Z,98761.47
2023-05-10T06:38:19.190Z,98765.66
2023-05-10T06:40:48.988Z,98770.78
2023-05-10T06:43:19.017Z,98781.47
2023-05-10T06:45:48.685Z,98788.28
2023-05-10T06:48:18.724Z,98803.38
2023-05-10T06:50:51.121Z,98806.94
2023-05-10T06:53:20.826Z,98803.59
2023-05-10T06:55:50.486Z,98805.88
2023-05-10T06:58:20.503Z,98803.06
2023-05-10T07:00:50.191Z,98810.28
2023-05-10T07:03:20.033Z,98799.66
2023-05-10T07:05:52.406Z,98795.19
2023-05-10T07:08:22.104Z,98793.81
2023-05-10T07:10:51.801Z,98792.53
2023-05-10T07:13:21.526Z,98789.75
2023-05-10T07:15:51.403Z,98791.66
2023-05-10T07:18:21.123Z,98777.81
2023-05-10T07:20:53.537Z,98777.69
2023-05-10T07:23:23.311Z,98778.16
2023-05-10T07:25:54.665Z,98781.69
2023-05-10T07:28:25.299Z,98788.25
2023-05-10T07:30:55.156Z,98800.75
2023-05-10T07:33:24.851Z,98803.53
2023-05-10T07:35:57.097Z,98813.78
2023-05-10T07:38:26.986Z,98813.34
2023-05-10T07:40:56.651Z,98817.69
2023-05-10T07:43:26.341Z,98827.69
2023-05-10T07:45:56.490Z,98820.91
2023-05-10T07:48:26.278Z,98835.25
2023-05-10T07:50:58.529Z,98837.09
2023-05-10T07:53:29.714Z,98835.25
2023-05-10T07:56:01.977Z,98846.81
2023-05-10T07:58:31.917Z,98849.06
2023-05-10T08:01:01.572Z,98851.34
2023-05-10T08:03:31.315Z,98857.69
2023-05-10T08:06:04.054Z,98856.38
2023-05-10T08:08:33.750Z,98854.00
2023-05-10T08:11:03.461Z,98857.97
2023-05-10T08:13:33.279Z,98865.22
2023-05-10T08:16:03.528Z,98862.50
2023-05-10T08:18:33.314Z,98873.16
2023-05-10T08:21:05.576Z,98880.75
2023-05-10T08:23:35.345Z,98878.81
2023-05-10T08:26:05.127Z,98876.28
2023-05-10T08:28:35.065Z,98874.84
2023-05-10T08:31:04.792Z,98888.69
2023-05-10T08:33:34.798Z,98892.28
2023-05-10T08:36:07.415Z,98886.47
2023-05-10T08:38:37.138Z,98895.63
2023-05-10T08:41:08.862Z,98893.50
2023-05-10T08:43:39.875Z,98888.97
2023-05-10T08:46:11.474Z,98899.63
2023-05-10T08:48:42.698Z,98899.94
2023-05-10T08:51:17.620Z,98906.28
2023-05-10T08:53:47.942Z,98911.78
2023-05-10T08:56:19.420Z,98913.34
2023-05-10T08:58:50.071Z,98925.06
2023-05-10T09:01:22.010Z,98931.91
2023-05-10T09:03:52.276Z,98934.66
2023-05-10T09:06:24.853Z,98941.00
2023-05-10T09:08:55.832Z,98926.78
2023-05-10T09:11:25.872Z,98935.13
2023-05-10T09:13:56.548Z,98936.91
2023-05-10T09:16:27.175Z,98942.44
2023-05-10T09:18:56.973Z,98940.16
2023-05-10T09:21:29.619Z,98941.56
2023-05-10T09:23:59.307Z,98948.34
2023-05-10T09:26:29.017Z,98949.19
2023-05-10T09:29:00.735Z,98955.91
2023-05-10T09:31:48.500Z,98966.31
2023-05-10T09:34:22.293Z,98964.41
2023-05-10T09:37:01.930Z,98975.03
2023-05-10T09:39:36.050Z,98969.94
2023-05-10T09:42:08.022Z,98978.66
2023-05-10T09:44:39.252Z,98982.97
2023-05-10T09:47:09.357Z,98986.16
2023-05-10T09:49:39.116Z,98998.00
2023-05-10T09:52:11.914Z,99000.03
2023-05-10T09:54:41.893Z,99014.69
2023-05-10T09:57:23.718Z,99007.66
2023-05-10T09:59:55.460Z,99014.03
2023-05-10T10:02:31.906Z,99026.22
2023-05-10T10:05:04.926Z,99031.59
2023-05-10T10:07:38.426Z,99028.41
2023-05-10T10:10:12.625Z,99033.97
2023-05-10T10:12:45.667Z,99045.22
2023-05-10T10:15:16.865Z,99034.97
2023-05-10T10:17:47.755Z,99045.59
2023-05-10T10:20:18.802Z,99045.84
2023-05-10T10:22:51.604Z,99038.28
2023-05-10T10:25:23.230Z,99046.25
2023-05-10T10:28:06.688Z,99042.75
2023-05-10T10:30:43.455Z,99038.59
2023-05-10T10:33:37.515Z,99050.03
2023-05-10T10:36:08.697Z,99057.19
2023-05-10T10:39:00.771Z,99051.06
2023-05-10T10:41:38.400Z,99057.81
2023-05-10T10:44:30.598Z,99062.72
2023-05-10T10:47:06.998Z,99065.34
2023-05-10T10:49:37.469Z,99057.47
2023-05-10T10:52:37.262Z,99051.13
2023-05-10T10:55:12.027Z,99046.41
2023-05-10T10:57:49.863Z,99059.13
2023-05-10T11:00:28.538Z,99053.59
2023-05-10T11:03:00.957Z,99057.25
2023-05-10T11:05:48.860Z,99058.34
2023-05-10T11:08:21.344Z,99055.56
2023-05-10T11:11:08.393Z,99050.91
2023-05-10T11:13:42.767Z,99055.63
2023-05-10T11:16:17.880Z,99049.88
2023-05-10T11:19:13.090Z,99052.00
2023-05-10T11:21:50.364Z,99057.78
2023-05-10T11:24:23.152Z,99056.00
2023-05-10T11:26:57.285Z,99062.28
2023-05-10T11:29:27.757Z,99051.03
2023-05-10T11:32:01.671Z,99058.06
2023-05-10T11:34:34.884Z,99072.78
2023-05-10T11:37:05.089Z,99071.38
2023-05-10T11:39:35.587Z,99071.47
2023-05-10T11:42:10.577Z,99074.63
2023-05-10T11:44:40.294Z,99071.00
2023-05-10T11:47:10.299Z,99068.84
2023-05-10T11:49:39.987Z,99076.59
2023-05-10T11:52:12.168Z,99078.84
2023-05-10T11:54:41.822Z,99077.84
2023-05-10T11:57:14.210Z,99083.41
2023-05-10T11:59:43.875Z,99096.41
2023-05-10T12:02:14.067Z,99099.47
2023-05-10T12:04:44.545Z,99094.94
2023-05-10T12:07:14.477Z,99099.31
2023-05-10T12:09:46.782Z,99093.44
2023-05-10T12:12:22.297Z,99091.34
2023-05-10T12:14:52.915Z,99091.16
2023-05-10T12:17:22.589Z,99089.53
2023-05-10T12:19:52.432Z,99097.28
2023-05-10T12:22:24.906Z,99092.00
2023-05-10T12:24:54.555Z,99090.44
2023-05-10T12:27:26.768Z,99098.94
2023-05-10T12:29:56.395Z,99106.16
2023-05-10T12:32:41.890Z,99101.69
2023-05-10T12:35:12.385Z,99095.63
2023-05-10T12:37:42.523Z,99089.91
2023-05-10T12:40:14.368Z,99091.94
2023-05-10T12:42:47.610Z,99087.91
2023-05-10T12:45:17.289Z,99105.25
2023-05-10T12:47:46.993Z,99094.91
2023-05-10T12:50:16.822Z,99102.84
2023-05-10T12:52:46.934Z,99104.25
2023-05-10T12:55:16.738Z,99095.84
2023-05-10T12:57:48.979Z,99092.38
2023-05-10T13:00:19.933Z,99096.03
2023-05-10T13:02:49.856Z,99106.88
2023-05-10T13:05:19.757Z,99100.72
2023-05-10T13:07:49.645Z,99103.63
2023-05-10T13:10:20.152Z,99104.44
2023-05-10T13:12:52.562Z,99104.59
2023-05-10T13:15:22.421Z,99105.84
2023-05-10T13:17:52.246Z,99103.13
2023-05-10T13:20:22.577Z,99098.78
2023-05-10T13:22:52.400Z,99099.94
2023-05-10T13:25:22.240Z,99098.22
2023-05-10T13:27:54.695Z,99099.72
2023-05-10T13:30:25.049Z,99088.81
2023-05-10T13:32:55.002Z,99095.81
2023-05-10T13:35:25.236Z,99096.59
2023-05-10T13:37:57.943Z,99096.84
2023-05-10T13:40:27.686Z,99097.88
2023-05-10T13:43:00.056Z,99093.56
2023-05-10T13:45:29.939Z,99090.66
2023-05-10T13:47:59.762Z,99093.69
2023-05-10T13:50:29.819Z,99088.88
2023-05-10T13:52:59.573Z,99083.78
2023-05-10T13:55:29.937Z,99082.81
2023-05-10T13:58:02.291Z,99084.28
2023-05-10T14:00:32.234Z,99083.91
2023-05-10T14:03:02.342Z,99083.16
2023-05-10T14:05:32.175Z,99087.16
2023-05-10T14:08:01.943Z,99084.56
2023-05-10T14:10:31.911Z,99082.78
2023-05-10T14:13:04.377Z,99082.44
2023-05-10T14:15:34.220Z,99078.72
2023-05-10T14:18:04.092Z,99089.38
2023-05-10T14:20:34.934Z,99074.41
2023-05-10T14:23:04.691Z,99080.97
2023-05-10T14:25:35.812Z,99082.00
2023-05-10T14:28:08.563Z,99081.56
2023-05-10T14:30:38.405Z,99078.06
2023-05-10T14:33:09.064Z,99075.97
2023-05-10T14:35:38.959Z,99071.69
2023-05-10T14:38:08.759Z,99065.47
2023-05-10T14:40:38.766Z,99054.53
2023-05-10T14:43:11.179Z,99063.75
2023-05-10T14:45:41.370Z,99061.25
2023-05-10T14:48:16.501Z,99063.03
2023-05-10T14:50:47.251Z,99069.16
2023-05-10T14:53:17.162Z,99064.63
2023-05-10T14:55:47.317Z,99065.50
2023-05-10T14:58:22.982Z,99065.41
2023-05-10T15:00:52.712Z,99071.31
2023-05-10T15:03:23.805Z,99065.00
2023-05-10T15:05:54.505Z,99061.75
2023-05-10T15:08:24.889Z,99055.88
2023-05-10T15:10:56.646Z,99068.41
2023-05-10T15:13:29.223Z,99077.16
2023-05-10T15:15:59.016Z,99066.06
2023-05-10T15:18:28.966Z,99070.34
2023-05-10T15:20:59.086Z,99069.16
2023-05-10T15:23:29.946Z,99080.81
2023-05-10T15:25:59.729Z,99070.94
2023-05-10T15:28:33.641Z,99078.50
2023-05-10T15:31:04.382Z,99082.09
2023-05-10T15:33:34.244Z,99078.19
2023-05-10T15:36:05.045Z,99083.56
2023-05-10T15:38:35.089Z,99081.13
2023-05-10T15:41:04.969Z,99079.91
2023-05-10T15:43:37.426Z,99083.19
2023-05-10T15:46:07.495Z,99081.78
2023-05-10T15:48:37.337Z,99077.16
2023-05-10T15:51:07.071Z,99074.19
2023-05-10T15:53:36.817Z,99069.03
2023-05-10T15:56:06.774Z,99078.28
2023-05-10T15:58:39.118Z,99075.75
2023-05-10T16:01:09.157Z,99078.16
2023-05-10T16:03:38.975Z,99075.88
2023-05-10T16:06:09.083Z,99073.22
2023-05-10T16:08:39.011Z,99072.00
2023-05-10T16:11:10.574Z,99079.16
2023-05-10T16:13:43.013Z,99081.13
2023-05-10T16:16:13.086Z,99079.97
2023-05-10T16:18:42.993Z,99081.28
2023-05-10T16:21:12.786Z,99080.94
2023-05-10T16:23:43.436Z,99090.25
2023-05-10T16:26:13.147Z,99083.91
2023-05-10T16:28:45.586Z,99089.75
2023-05-10T16:31:15.596Z,99089.03
2023-05-10T16:33:45.335Z,99098.91
2023-05-10T16:36:15.337Z,99105.16
2023-05-10T16:38:45.177Z,99106.41
2023-05-10T16:41:14.977Z,99104.41
2023-05-10T16:43:47.405Z,99103.81
2023-05-10T16:46:17.260Z,99111.31
2023-05-10T16:48:49.762Z,99114.78
2023-05-10T16:51:19.672Z,99116.84
2023-05-10T16:53:49.802Z,99121.66
2023-05-10T16:56:21.994Z,99121.03
2023-05-10T16:58:54.264Z,99128.19
2023-05-10T17:01:26.573Z,99128.59
2023-05-10T17:03:57.061Z,99124.91
2023-05-10T17:06:27.320Z,99130.56
2023-05-10T17:08:57.488Z,99129.34
2023-05-10T17:11:27.704Z,99134.19
2023-05-10T17:14:00.099Z,99135.28
2023-05-10T17:16:30.193Z,99138.47
2023-05-10T17:19:00.034Z,99145.53
2023-05-10T17:21:29.988Z,99137.56
2023-05-10T17:23:59.779Z,99139.69
2023-05-10T17:26:30.347Z,99137.25
2023-05-10T17:29:03.007Z,99144.78
2023-05-10T17:31:33.466Z,99149.50
2023-05-10T17:34:05.382Z,99144.88
2023-05-10T17:36:35.885Z,99145.03
2023-05-10T17:39:05.910Z,99157.91
2023-05-10T17:41:38.148Z,99156.72
2023-05-10T17:44:10.859Z,99162.72
2023-05-10T17:46:40.834Z,99166.53
2023-05-10T17:49:10.806Z,99162.72
2023-05-10T17:51:41.660Z,99166.81
2023-05-10T17:54:11.481Z,99170.88
2023-05-10T17:56:41.264Z,99168.19
2023-05-10T17:59:13.851Z,99173.72
2023-05-10T18:01:44.434Z,99168.88
2023-05-10T18:04:14.439Z,99175.13
2023-05-10T18:06:44.423Z,99175.78
2023-05-10T18:09:16.329Z,99182.47
2023-05-10T18:11:46.221Z,99195.44
2023-05-10T18:14:28.512Z,99192.09
2023-05-10T18:17:06.666Z,99207.38
2023-05-10T18:19:36.561Z,99210.97
2023-05-10T18:22:08.917Z,99201.63
2023-05-10T18:24:40.522Z,99208.19
2023-05-10T18:27:11.662Z,99210.97
2023-05-10T18:29:44.008Z,99221.69
2023-05-10T18:32:13.802Z,99223.78
2023-05-10T18:34:43.906Z,99220.78
2023-05-10T18:37:14.367Z,99225.41
2023-05-10T18:39:44.339Z,99230.91
2023-05-10T18:42:14.155Z,99240.97
2023-05-10T18:44:46.555Z,99240.03
2023-05-10T18:47:17.081Z,99241.34
2023-05-10T18:49:47.305Z,99233.03
2023-05-10T18:52:17.586Z,99239.72
2023-05-10T18:54:47.680Z,99233.78
2023-05-10T18:57:17.423Z,99234.56
2023-05-10T18:59:50.589Z,99247.69
2023-05-10T19:02:20.793Z,99253.78
2023-05-10T19:04:50.806Z,99252.25
2023-05-10T19:07:20.730Z,99263.63
2023-05-10T19:09:50.825Z,99266.09
2023-05-10T19:12:20.813Z,99264.50
2023-05-10T19:14:53.243Z,99265.06
2023-05-10T19:17:23.591Z,99269.06
2023-05-10T19:19:55.473Z,99276.72
2023-05-10T19:22:44.972Z,99269.97
2023-05-10T19:25:21.029Z,99272.63
2023-05-10T19:27:52.287Z,99269.81
2023-05-10T19:30:24.728Z,99272.06
2023-05-10T19:32:54.675Z,99275.75
2023-05-10T19:35:27.192Z,99265.53
2023-05-10T19:37:57.175Z,99271.13
2023-05-10T19:40:27.122Z,99277.38
2023-05-10T19:42:57.274Z,99267.97
2023-05-10T19:45:29.752Z,99274.50
2023-05-10T19:47:59.657Z,99296.00
2023-05-10T19:50:29.518Z,99319.88
2023-05-10T19:53:00.879Z,99310.41
2023-05-10T19:55:32.098Z,99304.75
2023-05-10T19:58:03.298Z,99316.34
2023-05-10T20:00:35.954Z,99316.34
2023-05-10T20:03:08.406Z,99309.97
2023-05-10T20:05:39.163Z,99294.91
2023-05-10T20:08:09.053Z,99287.66
2023-05-10T20:10:39.049Z,99292.78
2023-05-10T20:13:09.222Z,99289.88
2023-05-10T20:15:41.806Z,99293.38
2023-05-10T20:18:11.597Z,99290.94
2023-05-10T20:20:42.526Z,99288.84
2023-05-10T20:23:12.412Z,99296.16
2023-05-10T20:25:42.157Z,99299.94
2023-05-10T20:28:13.327Z,99319.00
2023-05-10T20:30:46.109Z,99328.03
2023-05-10T20:33:16.720Z,99334.59
2023-05-10T20:35:46.751Z,99331.06
2023-05-10T20:38:16.614Z,99332.88
2023-05-10T20:40:46.828Z,99333.28
2023-05-10T20:43:16.607Z,99328.69
2023-05-10T20:45:49.082Z,99325.28
2023-05-10T20:48:18.983Z,99306.16
2023-05-10T20:50:48.730Z,99317.41
2023-05-10T20:53:18.720Z,99323.09
2023-05-10T20:55:48.622Z,99333.72
2023-05-10T20:58:18.334Z,99330.19
2023-05-10T21:00:50.729Z,99338.69
2023-05-10T21:03:20.576Z,99351.44
2023-05-10T21:05:50.297Z,99349.31
2023-05-10T21:08:20.055Z,99335.63
2023-05-10T21:10:49.937Z,99317.19
2023-05-10T21:13:20.116Z,99309.50
2023-05-10T21:15:52.463Z,99316.09
2023-05-10T21:18:22.364Z,99307.03
2023-05-10T21:20:52.307Z,99318.38
2023-05-10T21:23:22.161Z,99314.44
2023-05-10T21:25:51.896Z,99320.06
2023-05-10T21:28:21.858Z,99318.19
2023-05-10T21:30:54.669Z,99326.44
2023-05-10T21:33:24.445Z,99338.56
2023-05-10T21:35:55.050Z,99342.47
2023-05-10T21:38:24.818Z,99344.69
2023-05-10T21:40:54.476Z,99350.25
2023-05-10T21:43:24.618Z,99363.03
2023-05-10T21:45:56.903Z,99361.66
2023-05-10T21:48:26.607Z,99348.00
2023-05-10T21:50:56.260Z,99353.16
2023-05-10T21:53:25.988Z,99363.06
2023-05-10T21:55:56.420Z,99363.94
2023-05-10T21:58:26.296Z,99354.44
2023-05-10T22:00:58.585Z,99344.63
2023-05-10T22:03:28.431Z,99352.91
2023-05-10T22:05:58.141Z,99350.38
2023-05-10T22:08:27.864Z,99347.03
2023-05-10T22:10:57.579Z,99344.13
2023-05-10T22:13:28.022Z,99334.41
2023-05-10T22:16:00.233Z,99337.63
2023-05-10T22:18:30.146Z,99342.97
2023-05-10T22:20:59.837Z,99365.28
2023-05-10T22:23:29.521Z,99378.16
2023-05-10T22:26:02.895Z,99384.38
2023-05-10T22:28:33.117Z,99370.28
2023-05-10T22:31:05.399Z,99358.97
2023-05-10T22:33:35.093Z,99362.91
2023-05-10T22:36:04.739Z,99357.97
2023-05-10T22:38:34.425Z,99356.84
2023-05-10T22:41:04.083Z,99371.34
2023-05-10T22:43:33.890Z,99368.19
2023-05-10T22:46:06.436Z,99374.16
2023-05-10T22:48:37.584Z,99368.66
2023-05-10T22:51:07.528Z,99372.06
2023-05-10T22:53:37.166Z,99367.56
2023-05-10T22:56:07.103Z,99375.78
2023-05-10T22:58:37.006Z,99389.19
2023-05-10T23:01:09.326Z,99376.75
2023-05-10T23:03:39.214Z,99376.03
2023-05-10T23:06:09.314Z,99384.59
2023-05-10T23:08:38.969Z,99387.16
2023-05-10T23:11:08.682Z,99380.16
2023-05-10T23:13:38.318Z,99378.16
2023-05-10T23:16:11.072Z,99377.97
2023-05-10T23:18:40.866Z,99383.28
2023-05-10T23:21:10.589Z,99375.16
2023-05-10T23:23:40.260Z,99366.41
2023-05-10T23:26:09.979Z,99368.16
2023-05-10T23:28:39.701Z,99374.38
2023-05-10T23:31:11.948Z,99376.94
2023-05-10T23:33:41.639Z,99386.34
2023-05-10T23:36:11.584Z,99380.41
2023-05-10T23:38:41.326Z,99365.75
2023-05-10T23:41:11.113Z,99370.00
2023-05-10T23:43:40.769Z,99379.16
2023-05-10T23:46:13.037Z,99398.22
2023-05-10T23:48:42.720Z,99401.00
2023-05-10T23:51:12.415Z,99390.94
2023-05-10T23:53:42.134Z,99388.44
2023-05-10T23:56:11.998Z,99382.59
2023-05-10T23:58:41.632Z,99379.19
